Time;durP1;ratioP1;P1;durP2;ratioP2;P2;SDS_P1;SDS_P2;PMS_P1;PMS_P2;Temp;Humidity;BMP_temperature;BMP_pressure;BME280_temperature;BME280_humidity;BME280_pressure;Samples;Min_cycle;Max_cycle;Signal;HPM_P1;HPM_P2
2021/09/14 00:02:15;;;;;;;9.83;1.60;;;;;;;;;;4863409;28;20242;-74
2021/09/14 00:04:38;;;;;;;61.07;36.07;;;;;;;;;;4862452;28;20536;-74
2021/09/14 00:07:02;;;;;;;3.47;0.67;;;;;;;;;;4865759;28;20193;-74
2021/09/14 00:09:25;;;;;;;15.33;2.23;;;;;;;;;;4865685;28;20221;-74
2021/09/14 00:11:47;;;;;;;6.60;1.10;;;;;;;;;;4867323;28;20190;-74
2021/09/14 00:14:11;;;;;;;24.17;18.83;;;13.40;41.70;;;;;;4857247;28;20255;-74
2021/09/14 00:16:34;;;;;;;11.90;1.90;;;;;;;;;;4865124;28;20193;-75
2021/09/14 00:18:57;;;;;;;6.10;1.10;;;;;;;;;;4859642;28;20194;-74
2021/09/14 00:21:20;;;;;;;6.30;1.07;;;;;;;;;;4885954;28;20278;-74
2021/09/14 00:23:43;;;;;;;7.50;1.30;;;;;;;;;;4862503;28;20181;-74
2021/09/14 00:26:06;;;;;;;7.00;1.20;;;;;;;;;;4865034;28;20244;-76
2021/09/14 00:28:28;;;;;;;12.27;1.93;;;;;;;;;;4861951;28;20729;-75
2021/09/14 00:30:54;;;;;;;8.30;1.30;;;13.60;43.20;;;;;;4865034;28;20210;-75
2021/09/14 00:33:19;;;;;;;9.37;1.53;;;;;;;;;;4858792;28;20204;-78
2021/09/14 00:35:41;;;;;;;7.40;1.23;;;;;;;;;;4863152;28;20233;-77
2021/09/14 00:38:04;;;;;;;9.37;2.77;;;;;;;;;;4867669;28;20243;-74
2021/09/14 00:40:27;;;;;;;34.57;21.80;;;;;;;;;;4881205;28;20210;-76
2021/09/14 00:42:50;;;;;;;67.77;61.13;;;;;;;;;;4868448;28;20194;-74
2021/09/14 00:45:13;;;;;;;12.50;1.77;;;13.80;43.90;;;;;;4858577;28;20248;-74
2021/09/14 00:47:37;;;;;;;70.43;61.23;;;13.90;43.90;;;;;;4867426;28;20189;-74
2021/09/14 00:50:01;;;;;;;15.00;9.50;;;13.90;43.80;;;;;;4867879;28;20189;-74
2021/09/14 00:52:24;;;;;;;82.57;73.67;;;;;;;;;;4864796;28;20200;-74
2021/09/14 00:54:46;;;;;;;9.57;1.40;;;;;;;;;;4865266;28;20276;-75
2021/09/14 00:57:09;;;;;;;7.67;1.20;;;;;;;;;;4867222;28;20193;-75
2021/09/14 00:59:32;;;;;;;14.60;2.07;;;;;;;;;;4859042;28;20552;-75
2021/09/14 01:01:55;;;;;;;7.37;1.10;;;14.00;43.80;;;;;;4864734;28;20193;-76
2021/09/14 01:04:19;;;;;;;11.77;1.80;;;14.00;43.80;;;;;;4865657;28;20562;-78
2021/09/14 01:06:42;;;;;;;5.90;1.00;;;;;;;;;;4867493;28;20189;-75
2021/09/14 01:09:05;;;;;;;7.17;1.10;;;;;;;;;;4864361;28;20209;-77
2021/09/14 01:11:28;;;;;;;16.23;2.47;;;;;;;;;;4868861;28;20565;-76
2021/09/14 01:14:00;;;;;;;7.60;1.20;;;13.90;43.60;;;;;;4862791;28;20190;-76
2021/09/14 01:16:23;;;;;;;10.13;1.63;;;;;;;;;;4879373;28;20231;-75
2021/09/14 01:18:46;;;;;;;5.93;1.00;;;;;;;;;;4877180;28;20207;-75
2021/09/14 01:21:10;;;;;;;9.83;1.37;;;13.70;43.70;;;;;;4865570;28;20202;-78
2021/09/14 01:23:36;;;;;;;11.23;1.60;;;13.70;43.40;;;;;;4880915;28;20229;-75
2021/09/14 01:25:59;;;;;;;29.47;25.57;;;;;;;;;;4879650;28;20202;-78
2021/09/14 01:28:22;;;;;;;59.40;54.77;;;;;;;;;;4875857;28;20212;-78
2021/09/14 01:30:46;;;;;;;115.50;91.47;;;;;;;;;;4869404;28;20260;-78
2021/09/14 01:33:15;;;;;;;95.37;62.73;;;;;;;;;;4863362;28;20220;-77
2021/09/14 01:35:38;;;;;;;201.63;124.90;;;;;;;;;;4879305;28;20225;-77
2021/09/14 01:38:05;;;;;;;157.77;113.33;;;;;;;;;;4885817;28;20200;-76
2021/09/14 01:40:33;;;;;;;121.13;97.33;;;13.40;41.30;;;;;;4864135;28;20201;-77
2021/09/14 01:43:01;;;;;;;69.23;63.33;;;;;;;;;;4879502;28;20255;-76
2021/09/14 01:45:24;;;;;;;81.23;72.70;;;;;;;;;;4875999;28;20205;-76
2021/09/14 01:47:48;;;;;;;54.17;49.03;;;;;;;;;;4870766;28;20238;-77
2021/09/14 01:50:13;;;;;;;86.93;78.57;;;13.30;41.50;;;;;;4869065;28;20222;-76
2021/09/14 01:52:36;;;;;;;107.90;92.47;;;;;;;;;;4869094;28;20197;-78
2021/09/14 01:55:01;;;;;;;92.70;84.00;;;13.20;42.50;;;;;;4870263;28;20214;-78
2021/09/14 01:57:29;;;;;;;15.80;2.17;;;13.20;43.00;;;;;;4866087;28;20205;-75
2021/09/14 01:59:54;;;;;;;9.23;1.40;;;;;;;;;;4867789;28;20526;-78
2021/09/14 02:02:23;;;;;;;35.13;31.50;;;;;;;;;;4849187;28;20759;-77
2021/09/14 02:04:51;;;;;;;56.10;51.03;;;;;;;;;;4870554;28;20753;-78
2021/09/14 02:07:25;;;;;;;54.10;48.70;;;;;;;;;;4867989;28;20247;-74
2021/09/14 02:42:54;;;;;;;15.63;2.10;;;;;;;;;;4853014;28;20189;-74
2021/09/14 02:58:49;;;;;;;13.37;2.07;;;;;;;;;;4831211;28;20354;-75
2021/09/14 03:01:14;;;;;;;22.70;3.87;;;11.30;39.90;;;;;;4848038;28;20556;-74
2021/09/14 03:03:42;;;;;;;24.63;4.60;;;11.30;39.20;;;;;;4881702;28;20205;-75
2021/09/14 03:06:08;;;;;;;14.70;2.10;;;;;;;;;;4878252;28;20251;-74
2021/09/14 03:08:32;;;;;;;21.30;3.33;;;;;;;;;;4866484;28;20186;-74
2021/09/14 03:10:56;;;;;;;12.37;2.33;;;;;;;;;;4881824;28;20218;-75
2021/09/14 03:13:18;;;;;;;17.77;2.83;;;;;;;;;;4865856;28;20186;-74
2021/09/14 03:15:42;;;;;;;9.27;1.60;;;;;;;;;;4870663;28;20221;-75
2021/09/14 03:18:07;;;;;;;9.50;1.50;;;10.90;40.10;;;;;;4865678;28;20656;-74
2021/09/14 03:20:29;;;;;;;12.97;1.77;;;;;;;;;;4868726;28;20607;-75
2021/09/14 03:22:52;;;;;;;10.83;1.50;;;;;;;;;;4868988;28;20248;-75
2021/09/14 03:25:17;;;;;;;13.93;1.97;;;;;;;;;;4871134;28;20541;-75
2021/09/14 03:27:40;;;;;;;7.67;1.30;;;;;;;;;;4884353;28;20193;-75
2021/09/14 03:30:03;;;;;;;9.87;1.43;;;;;;;;;;4864592;28;20609;-77
2021/09/14 03:32:30;;;;;;;24.50;3.10;;;;;;;;;;4881458;28;20216;-74
2021/09/14 03:34:54;;;;;;;14.40;1.93;;;10.80;36.40;;;;;;4881854;28;20719;-76
2021/09/14 03:37:17;;;;;;;12.13;1.67;;;;;;;;;;4869457;28;20201;-74
2021/09/14 03:39:39;;;;;;;18.60;2.40;;;;;;;;;;4865821;28;20189;-75
2021/09/14 03:42:08;;;;;;;13.60;1.80;;;;;;;;;;4883642;28;20197;-74
2021/09/14 03:44:31;;;;;;;21.67;2.73;;;;;;;;;;4859641;28;20644;-74
2021/09/14 03:46:56;;;;;;;9.17;1.33;;;;;;;;;;4880521;28;20204;-75
2021/09/14 03:49:18;;;;;;;14.10;1.93;;;;;;;;;;4865113;28;20185;-78
2021/09/14 03:51:42;;;;;;;7.00;1.00;;;10.60;37.80;;;;;;4880255;28;20226;-75
2021/09/14 03:54:06;;;;;;;10.33;1.47;;;;;;;;;;4877250;28;20236;-74
2021/09/14 03:56:28;;;;;;;20.30;2.63;;;;;;;;;;4860650;28;20683;-74
2021/09/14 03:58:51;;;;;;;12.63;1.63;;;;;;;;;;4868357;28;20205;-76
2021/09/14 04:01:14;;;;;;;12.53;1.77;;;;;;;;;;4864384;28;20198;-74
2021/09/14 04:03:42;;;;;;;17.73;2.30;;;;;;;;;;4880850;28;20303;-75
2021/09/14 04:06:24;;;;;;;12.60;1.63;;;10.40;36.10;;;;;;4881249;28;20226;-74
2021/09/14 04:08:52;;;;;;;11.57;1.60;;;10.30;36.70;;;;;;4865845;28;20197;-75
2021/09/14 04:11:22;;;;;;;10.90;1.53;;;10.30;36.90;;;;;;4882036;28;21050;-75
2021/09/14 04:13:46;;;;;;;13.63;1.87;;;;;;;;;;4869860;28;20194;-75
2021/09/14 04:16:11;;;;;;;14.00;1.90;;;;;;;;;;4880703;28;20287;-75
2021/09/14 04:18:34;;;;;;;14.43;1.93;;;;;;;;;;4866169;28;20637;-75
2021/09/14 04:20:58;;;;;;;8.30;1.20;;;;;;;;;;4868040;28;20691;-75
2021/09/14 04:23:21;;;;;;;12.27;1.73;;;;;;;;;;4875776;28;20678;-75
2021/09/14 04:25:44;;;;;;;11.37;1.60;;;10.10;36.90;;;;;;4867650;28;20205;-73
2021/09/14 04:28:07;;;;;;;8.43;1.27;;;;;;;;;;4867673;28;20235;-74
2021/09/14 04:30:30;;;;;;;11.00;1.63;;;;;;;;;;4869424;28;20251;-73
2021/09/14 04:32:53;;;;;;;10.67;1.53;;;;;;;;;;4864959;28;20190;-73
2021/09/14 04:35:16;;;;;;;9.63;1.30;;;;;;;;;;4880995;28;20237;-73
2021/09/14 04:37:39;;;;;;;20.27;2.60;;;;;;;;;;4869912;28;20226;-74
2021/09/14 04:40:03;;;;;;;7.77;1.17;;;10.20;34.60;;;;;;4879150;28;20201;-77
2021/09/14 04:42:27;;;;;;;16.27;2.20;;;10.30;34.40;;;;;;4865616;28;20237;-73
2021/09/14 04:44:50;;;;;;;12.60;1.77;;;;;;;;;;4881034;28;20200;-73
2021/09/14 04:47:13;;;;;;;10.60;1.43;;;;;;;;;;4865167;28;20241;-72
2021/09/14 04:49:38;;;;;;;12.27;1.63;;;;;;;;;;4870976;28;20291;-74
2021/09/14 04:52:05;;;;;;;9.60;1.37;;;;;;;;;;4865229;28;20255;-73
2021/09/14 04:54:28;;;;;;;22.23;2.73;;;;;;;;;;4864650;28;20181;-75
2021/09/14 04:56:51;;;;;;;10.57;1.47;;;;;;;;;;4878596;28;20225;-74
2021/09/14 04:59:15;;;;;;;13.43;1.73;;;10.50;33.10;;;;;;4879568;28;20287;-73
2021/09/14 05:01:38;;;;;;;20.53;2.60;;;;;;;;;;4881807;28;20197;-73
2021/09/14 05:04:01;;;;;;;9.67;1.40;;;;;;;;;;4879785;28;21195;-73
2021/09/14 05:06:27;;;;;;;20.13;2.67;;;;;;;;;;4881794;28;20235;-73
2021/09/14 05:08:51;;;;;;;11.87;1.60;;;;;;;;;;4869590;28;20205;-75
2021/09/14 05:11:14;;;;;;;11.33;1.60;;;;;;;;;;4880164;28;20244;-77
2021/09/14 05:13:37;;;;;;;14.17;1.97;;;;;;;;;;4868780;28;20198;-74
2021/09/14 05:16:01;;;;;;;12.37;1.73;;;11.00;34.10;;;;;;4856779;28;20190;-74
2021/09/14 05:18:57;;;;;;;15.10;2.10;;;;;;;;;;4840134;28;20205;-73
2021/09/14 05:21:20;;;;;;;14.50;2.00;;;;;;;;;;4868382;28;20177;-74
2021/09/14 05:23:43;;;;;;;17.60;2.33;;;;;;;;;;4872004;28;20177;-76
2021/09/14 05:26:07;;;;;;;8.23;1.43;;;11.50;32.40;;;;;;4869943;28;20233;-74
2021/09/14 05:28:30;;;;;;;22.43;3.00;;;;;;;;;;4886222;28;20247;-76
2021/09/14 05:30:54;;;;;;;12.20;1.73;;;;;;;;;;4867999;28;20198;-76
2021/09/14 05:33:18;;;;;;;9.87;1.47;;;11.90;32.10;;;;;;4869066;28;20703;-76
2021/09/14 05:35:46;;;;;;;9.70;1.33;;;12.00;32.10;;;;;;4872518;28;20279;-74
2021/09/14 05:38:09;;;;;;;15.10;2.07;;;;;;;;;;4864126;28;20212;-74
2021/09/14 05:40:32;;;;;;;101.23;11.67;;;;;;;;;;4875831;28;20204;-77
2021/09/14 05:43:03;;;;;;;26.23;3.30;;;;;;;;;;4858526;28;20229;-73
2021/09/14 05:45:27;;;;;;;21.03;2.63;;;;;;;;;;4864139;28;20275;-73
2021/09/14 05:47:51;;;;;;;14.40;1.87;;;;;;;;;;4853607;28;20205;-72
2021/09/14 05:50:18;;;;;;;14.77;1.93;;;12.80;33.70;;;;;;4868000;28;20226;-74
2021/09/14 05:52:42;;;;;;;10.97;1.50;;;;;;;;;;4870055;28;20266;-72
2021/09/14 05:55:06;;;;;;;14.80;2.00;;;13.10;34.70;;;;;;4869048;28;20244;-72
2021/09/14 05:57:30;;;;;;;16.93;2.10;;;;;;;;;;4859125;28;20290;-72
2021/09/14 05:59:53;;;;;;;11.83;1.67;;;;;;;;;;4865653;28;20261;-73
2021/09/14 06:02:18;;;;;;;16.23;2.17;;;;;;;;;;4866179;28;20260;-75
2021/09/14 06:04:41;;;;;;;11.77;1.70;;;;;;;;;;4870168;28;21007;-73
2021/09/14 06:07:05;;;;;;;8.87;1.27;;;13.90;38.30;;;;;;4868532;28;20706;-76
2021/09/14 06:09:29;;;;;;;18.13;2.53;;;;;;;;;;4864822;28;20243;-74
2021/09/14 06:11:51;;;;;;;12.37;1.80;;;;;;;;;;4860644;28;20727;-74
2021/09/14 06:14:15;;;;;;;13.83;1.87;;;;;;;;;;4866284;28;20201;-74
2021/09/14 06:16:39;;;;;;;19.73;2.43;;;;;;;;;;4881711;28;20605;-75
2021/09/14 06:19:02;;;;;;;10.10;1.53;;;;;;;;;;4867848;28;20699;-75
2021/09/14 06:21:28;;;;;;;21.93;2.83;;;;;;;;;;4871624;28;20197;-74
2021/09/14 06:23:54;;;;;;;11.53;1.53;;;14.80;43.20;;;;;;4879833;28;20605;-74
2021/09/14 06:26:17;;;;;;;14.77;1.87;;;;;;;;;;4883914;28;20251;-74
2021/09/14 06:28:41;;;;;;;8.13;1.10;;;;;;;;;;4865844;28;20922;-73
2021/09/14 06:31:04;;;;;;;12.47;1.63;;;;;;;;;;4875502;28;20673;-73
2021/09/14 06:33:30;;;;;;;20.80;2.63;;;;;;;;;;4858850;28;20237;-74
2021/09/14 06:35:53;;;;;;;8.20;1.20;;;;;;;;;;4872917;28;20682;-74
2021/09/14 06:38:24;;;;;;;25.23;3.13;;;;;;;;;;4863477;28;20647;-74
2021/09/14 06:40:49;;;;;;;39.10;4.77;;;15.80;47.10;;;;;;4877591;28;20201;-74
2021/09/14 06:43:12;;;;;;;15.33;2.00;;;;;;;;;;4877786;28;20197;-74
2021/09/14 06:45:40;;;;;;;8.03;1.07;;;;;;;;;;4857806;28;20234;-79
2021/09/14 06:48:08;;;;;;;12.37;1.60;;;;;;;;;;4863361;28;20229;-74
2021/09/14 06:50:31;;;;;;;28.63;3.40;;;;;;;;;;4865358;28;20185;-80
2021/09/14 06:52:54;;;;;;;16.23;2.13;;;;;;;;;;4867887;28;20242;-79
2021/09/14 06:55:17;;;;;;;16.90;2.13;;;16.00;47.70;;;;;;4863047;28;20245;-75
2021/09/14 06:57:41;;;;;;;18.37;2.27;;;16.20;47.70;;;;;;4860304;28;20186;-81
2021/09/14 07:00:04;;;;;;;9.90;1.27;;;;;;;;;;4861350;28;20190;-74
2021/09/14 07:02:26;;;;;;;21.37;2.60;;;;;;;;;;4862556;28;20194;-74
2021/09/14 07:04:49;;;;;;;17.50;2.23;;;;;;;;;;4862340;28;20214;-74
2021/09/14 07:07:12;;;;;;;11.67;1.53;;;;;;;;;;4861202;28;20260;-79
2021/09/14 07:09:36;;;;;;;19.93;2.47;;;;;;;;;;4863258;28;20240;-74
2021/09/14 07:11:59;;;;;;;51.97;6.17;;;;;;;;;;4880257;28;20201;-74
2021/09/14 07:14:23;;;;;;;11.37;1.50;;;16.80;48.50;;;;;;4865872;28;20248;-74
2021/09/14 07:16:46;;;;;;;21.37;2.70;;;;;;;;;;4866678;28;20232;-74
2021/09/14 07:19:09;;;;;;;12.73;1.67;;;;;;;;;;4860700;28;20217;-77
2021/09/14 07:21:31;;;;;;;21.90;2.70;;;;;;;;;;4864042;28;20205;-78
2021/09/14 07:23:54;;;;;;;12.27;1.57;;;;;;;;;;4861472;28;20659;-75
2021/09/14 07:26:17;;;;;;;18.47;2.33;;;;;;;;;;4866859;28;20594;-74
2021/09/14 07:28:39;;;;;;;18.10;2.27;;;;;;;;;;4868162;28;20279;-77
2021/09/14 07:31:05;;;;;;;12.07;1.53;;;17.30;49.00;;;;;;4864432;28;20209;-75
2021/09/14 07:33:27;;;;;;;24.63;3.03;;;;;;;;;;4861895;28;20223;-75
2021/09/14 07:35:50;;;;;;;9.83;1.20;;;;;;;;;;4864096;28;20283;-74
2021/09/14 07:38:13;;;;;;;15.70;2.00;;;;;;;;;;4865438;28;20209;-78
2021/09/14 07:40:36;;;;;;;21.33;2.70;;;;;;;;;;4866424;28;20244;-74
2021/09/14 07:42:59;;;;;;;35.13;4.23;;;;;;;;;;4866122;28;20197;-80
2021/09/14 07:45:21;;;;;;;18.90;2.37;;;;;;;;;;4859017;28;20194;-75
2021/09/14 07:47:45;;;;;;;8.93;1.20;;;18.10;49.90;;;;;;4858251;28;20279;-74
2021/09/14 07:50:09;;;;;;;12.93;1.70;;;18.20;49.90;;;;;;4865105;28;20224;-75
2021/09/14 07:52:32;;;;;;;23.90;2.73;;;;;;;;;;4863383;28;20186;-80
2021/09/14 07:54:54;;;;;;;23.07;2.77;;;;;;;;;;4857075;28;20193;-75
2021/09/14 07:57:17;;;;;;;17.33;2.13;;;;;;;;;;4867411;28;20189;-80
2021/09/14 07:59:40;;;;;;;30.40;3.67;;;;;;;;;;4860207;28;20196;-75
2021/09/14 08:02:03;;;;;;;20.80;2.83;;;;;;;;;;4856130;28;20249;-76
2021/09/14 08:04:27;;;;;;;17.97;2.40;;;19.20;50.70;;;;;;4864748;28;20216;-79
2021/09/14 08:06:50;;;;;;;12.03;1.63;;;;;;;;;;4861453;28;20205;-79
2021/09/14 08:09:13;;;;;;;12.70;1.73;;;;;;;;;;4865448;28;20216;-78
2021/09/14 08:11:36;;;;;;;11.37;1.67;;;;;;;;;;4867473;28;20194;-75
2021/09/14 08:13:59;;;;;;;19.27;2.67;;;;;;;;;;4860477;28;20695;-75
2021/09/14 08:16:21;;;;;;;18.37;2.63;;;;;;;;;;4884616;28;20205;-76
2021/09/14 08:18:44;;;;;;;9.20;1.37;;;;;;;;;;4869799;28;20247;-79
2021/09/14 08:21:08;;;;;;;6.87;1.10;;;20.50;51.70;;;;;;4856667;28;20665;-79
2021/09/14 08:23:32;;;;;;;15.03;2.20;;;;;;;;;;4862053;28;20269;-78
2021/09/14 08:25:55;;;;;;;8.90;1.33;;;;;;;;;;4863120;28;20202;-79
2021/09/14 08:28:21;;;;;;;9.03;1.33;;;;;;;;;;4863293;28;20624;-79
2021/09/14 08:30:44;;;;;;;23.17;3.30;;;;;;;;;;4866960;28;20210;-77
2021/09/14 08:33:06;;;;;;;6.73;1.07;;;;;;;;;;4865172;28;20210;-75
2021/09/14 08:35:29;;;;;;;14.10;2.10;;;;;;;;;;4863844;28;20736;-75
2021/09/14 08:37:53;;;;;;;16.43;2.50;;;22.10;54.50;;;;;;4864010;28;20586;-75
2021/09/14 08:40:16;;;;;;;10.97;1.57;;;;;;;;;;4858685;28;20551;-75
2021/09/14 08:42:40;;;;;;;7.33;1.07;;;;;;;;;;4860530;28;20490;-74
2021/09/14 08:45:03;;;;;;;10.77;1.67;;;;;;;;;;4862488;28;20711;-74
2021/09/14 08:47:26;;;;;;;27.77;3.87;;;;;;;;;;4863888;28;20261;-75
2021/09/14 08:49:49;;;;;;;6.83;1.10;;;;;;;;;;4860793;28;20267;-75
2021/09/14 08:52:12;;;;;;;11.00;1.67;;;;;;;;;;4864818;28;20655;-74
2021/09/14 08:54:36;;;;;;;10.07;1.63;;;23.30;55.60;;;;;;4864319;28;20191;-74
2021/09/14 08:56:59;;;;;;;6.33;1.00;;;;;;;;;;4867339;28;20240;-74
2021/09/14 08:59:28;;;;;;;14.33;2.23;;;23.70;56.30;;;;;;4859049;28;20257;-74
2021/09/14 09:01:57;;;;;;;25.33;3.47;;;24.00;56.60;;;;;;4858923;28;20192;-75
2021/09/14 09:04:23;;;;;;;11.80;1.70;;;25.20;42.70;;;;;;4859721;28;20196;-74
2021/09/14 09:06:45;;;;;;;8.17;1.23;;;;;;;;;;4863992;28;20192;-74
2021/09/14 09:09:14;;;;;;;8.33;1.23;;;25.90;43.90;;;;;;4860069;28;20675;-74
2021/09/14 09:11:38;;;;;;;22.23;2.90;;;27.10;44.80;;;;;;4859709;28;20193;-75
2021/09/14 09:14:01;;;;;;;7.07;1.00;;;;;;;;;;4863289;28;20237;-74
2021/09/14 09:16:25;;;;;;;20.27;2.57;;;30.70;47.30;;;;;;4857724;28;20202;-74
2021/09/14 09:18:51;;;;;;;25.60;3.37;;;32.60;48.50;;;;;;4868661;28;20188;-74
2021/09/14 09:21:14;;;;;;;18.50;2.50;;;;;;;;;;4863312;28;20206;-74
2021/09/14 09:23:37;;;;;;;21.77;2.90;;;;;;;;;;4864118;28;20195;-75
2021/09/14 09:26:07;;;;;;;9.85;1.35;;;36.80;50.80;;;;;;4862425;28;20217;-75
2021/09/14 09:28:31;;;;;;;17.77;2.38;;;37.30;51.20;;;;;;4865475;28;20259;-77
2021/09/14 09:30:55;;;;;;;33.42;4.45;;;37.10;51.20;;;;;;4860500;28;20186;-75
2021/09/14 09:33:25;;;;;;;11.25;1.58;;;37.50;51.40;;;;;;4861109;28;20243;-75
2021/09/14 09:35:47;;;;;;;10.13;1.48;;;;;;;;;;4865081;28;20279;-75
2021/09/14 09:38:11;;;;;;;10.80;1.58;;;;;;;;;;4863370;28;20201;-75
2021/09/14 09:40:36;;;;;;;14.57;2.03;;;39.70;52.10;;;;;;4866564;28;20194;-80
2021/09/14 09:43:00;;;;;;;20.20;2.72;;;40.80;52.60;;;;;;4864763;28;20193;-75
2021/09/14 09:45:24;;;;;;;10.18;1.42;;;40.90;52.80;;;;;;4856520;28;20186;-74
2021/09/14 09:47:47;;;;;;;8.18;1.13;;;40.50;52.60;;;;;;4862768;28;20590;-75
2021/09/14 09:50:12;;;;;;;10.30;1.42;;;40.80;52.70;;;;;;4878877;28;20209;-76
2021/09/14 09:52:35;;;;;;;18.25;2.38;;;;;;;;;;4868038;28;20655;-73
2021/09/14 09:54:59;;;;;;;11.10;1.50;;;41.40;53.00;;;;;;4860031;28;20229;-75
2021/09/14 09:57:24;;;;;;;15.43;2.13;;;41.50;53.00;;;;;;4860232;28;20193;-76
2021/09/14 09:59:47;;;;;;;8.05;1.15;;;;;;;;;;4860433;28;20262;-74
2021/09/14 10:02:15;;;;;;;6.35;0.98;;;42.60;53.30;;;;;;4868127;28;20193;-75
2021/09/14 10:04:44;;;;;;;24.40;3.28;;;42.70;53.30;;;;;;4870407;28;20201;-74
2021/09/14 10:07:07;;;;;;;9.73;1.38;;;43.60;53.70;;;;;;4859826;28;20190;-75
2021/09/14 10:09:31;;;;;;;16.02;2.38;;;44.30;54.00;;;;;;4864121;28;20246;-75
2021/09/14 10:11:55;;;;;;;25.52;3.67;;;44.50;54.10;;;;;;4864898;28;20198;-75
2021/09/14 10:14:18;;;;;;;13.57;1.95;;;;;;;;;;4859290;28;20610;-76
2021/09/14 10:16:45;;;;;;;9.40;1.42;;;44.20;54.10;;;;;;4858276;28;20198;-77
2021/09/14 10:19:12;;;;;;;10.07;1.52;;;43.50;53.80;;;;;;4864812;28;20298;-74
2021/09/14 10:21:35;;;;;;;17.60;2.45;;;;;;;;;;4862075;28;20190;-81
2021/09/14 10:23:57;;;;;;;5.78;0.90;;;;;;;;;;4858459;28;20240;-77
2021/09/14 10:26:21;;;;;;;13.85;2.15;;;;;;;;;;4865094;28;20251;-77
2021/09/14 10:28:45;;;;;;;9.13;1.38;;;42.90;53.60;;;;;;4867036;28;20248;-77
2021/09/14 10:31:19;;;;;;;6.85;1.08;;;43.80;53.90;;;;;;4859695;28;20585;-79
2021/09/14 10:33:42;;;;;;;4.22;0.73;;;;;;;;;;4866188;28;20173;-74
2021/09/14 10:36:15;;;;;;;6.65;1.08;;;44.40;54.00;;;;;;4866556;28;20631;-78
2021/09/14 10:38:39;;;;;;;19.25;2.95;;;43.60;53.90;;;;;;4861984;28;20213;-74
2021/09/14 10:41:04;;;;;;;7.78;1.23;;;;;;;;;;4863813;28;20198;-75
2021/09/14 10:43:28;;;;;;;13.27;2.08;;;41.00;52.80;;;;;;4870823;28;20239;-77
2021/09/14 10:45:52;;;;;;;7.07;1.15;;;;;;;;;;4877051;28;20251;-75
2021/09/14 10:48:25;;;;;;;10.90;1.70;;;36.80;51.40;;;;;;4857495;28;20189;-78
2021/09/14 10:50:48;;;;;;;19.60;3.10;;;;;;;;;;4860933;28;20181;-80
2021/09/14 10:53:26;;;;;;;7.18;1.17;;;34.40;50.50;;;;;;4873985;28;20256;-74
2021/09/14 10:55:52;;;;;;;7.63;1.27;;;35.40;50.80;;;;;;4865953;28;20266;-74
2021/09/14 10:58:15;;;;;;;12.07;1.98;;;;;;;;;;4863431;28;20237;-75
2021/09/14 11:00:38;;;;;;;64.78;9.88;;;;;;;;;;4857520;28;20229;-74
2021/09/14 11:03:04;;;;;;;8.30;1.40;;;38.90;52.20;;;;;;4869485;28;20189;-78
2021/09/14 11:05:29;;;;;;;10.05;1.60;;;38.50;52.00;;;;;;4865690;28;20189;-78
2021/09/14 11:07:58;;;;;;;6.63;1.10;;;36.50;51.20;;;;;;4864029;28;20239;-77
2021/09/14 11:10:22;;;;;;;10.18;1.75;;;35.20;50.80;;;;;;4864103;28;20193;-74
2021/09/14 11:12:46;;;;;;;6.97;1.20;;;33.70;50.20;;;;;;4869011;28;20185;-75
2021/09/14 11:15:12;;;;;;;5.50;1.02;;;32.50;49.70;;;;;;4865273;28;20727;-73
2021/09/14 11:17:35;;;;;;;9.05;1.55;;;31.70;49.40;;;;;;4859363;28;20559;-72
2021/09/14 11:20:09;;;;;;;15.68;2.67;;;30.80;49.00;;;;;;4878246;28;20221;-72
2021/09/14 11:22:34;;;;;;;12.05;2.15;;;30.10;48.70;;;;;;4860616;28;20182;-73
2021/09/14 11:24:57;;;;;;;6.57;1.20;;;;;;;;;;4867170;28;20185;-74
2021/09/14 11:27:23;;;;;;;12.98;2.22;;;29.40;48.30;;;;;;4866965;28;20666;-74
2021/09/14 11:29:45;;;;;;;8.95;1.52;;;;;;;;;;4867611;28;20220;-74
2021/09/14 11:32:14;;;;;;;15.55;2.65;;;28.80;48.00;;;;;;4876729;28;20197;-73
2021/09/14 11:34:37;;;;;;;12.27;2.20;;;;;;;;;;4864951;28;20239;-75
2021/09/14 11:37:01;;;;;;;5.18;1.00;;;;;;;;;;4867005;28;20177;-72
2021/09/14 11:39:24;;;;;;;10.00;1.77;;;;;;;;;;4873319;28;20225;-73
2021/09/14 11:41:59;;;;;;;13.23;2.22;;;28.60;47.90;;;;;;4869543;28;20178;-73
2021/09/14 11:44:28;;;;;;;6.07;1.07;;;28.70;47.90;;;;;;4864276;28;20240;-73
2021/09/14 11:46:50;;;;;;;8.07;1.43;;;;;;;;;;4861990;28;20185;-73
2021/09/14 11:49:13;;;;;;;5.13;0.90;;;;;;;;;;4874775;28;20222;-72
2021/09/14 11:51:39;;;;;;;10.77;1.77;;;31.20;48.90;;;;;;4871270;28;20216;-73
2021/09/14 11:54:04;;;;;;;10.13;1.65;;;32.30;49.20;;;;;;4855894;28;20307;-73
2021/09/14 11:56:28;;;;;;;18.27;2.83;;;33.90;50.10;;;;;;4857077;28;20189;-72
2021/09/14 11:58:51;;;;;;;8.80;1.52;;;34.10;50.10;;;;;;4857110;28;20197;-74
2021/09/14 12:01:16;;;;;;;12.52;2.08;;;33.90;50.00;;;;;;4858908;28;20214;-74
2021/09/14 12:03:42;;;;;;;17.73;2.78;;;34.50;50.40;;;;;;4857405;28;20193;-73
2021/09/14 12:06:06;;;;;;;6.57;1.08;;;35.60;50.60;;;;;;4863928;28;20197;-73
2021/09/14 12:08:30;;;;;;;12.82;2.10;;;37.90;51.40;;;;;;4860051;28;20189;-74
2021/09/14 12:10:53;;;;;;;19.67;3.10;;;;;;;;;;4866463;28;20258;-75
2021/09/14 12:13:18;;;;;;;10.63;1.70;;;43.10;53.40;;;;;;4860474;28;20181;-73
2021/09/14 12:15:41;;;;;;;7.78;1.30;;;;;;;;;;4866959;28;20242;-72
2021/09/14 12:18:07;;;;;;;7.30;1.17;;;43.90;54.00;;;;;;4865723;28;20198;-74
2021/09/14 12:20:30;;;;;;;13.80;2.22;;;;;;;;;;4870949;28;20256;-75
2021/09/14 12:22:53;;;;;;;10.48;1.65;;;;;;;;;;4858756;28;20255;-75
2021/09/14 12:25:16;;;;;;;19.67;3.08;;;;;;;;;;4864990;28;20189;-75
2021/09/14 12:27:39;;;;;;;14.38;2.28;;;;;;;;;;4859969;28;20182;-74
2021/09/14 12:30:01;;;;;;;10.52;1.73;;;;;;;;;;4867649;28;20242;-74
2021/09/14 12:32:24;;;;;;;15.90;2.50;;;;;;;;;;4859832;28;20193;-74
2021/09/14 12:34:48;;;;;;;11.13;1.77;;;47.40;55.20;;;;;;4866967;28;20592;-76
2021/09/14 12:37:16;;;;;;;12.30;1.98;;;47.10;55.10;;;;;;4864051;28;20182;-75
2021/09/14 12:39:39;;;;;;;13.63;2.10;;;;;;;;;;4864591;28;20205;-74
2021/09/14 12:42:05;;;;;;;33.45;5.00;;;;;;;;;;4860146;28;20190;-74
2021/09/14 12:44:28;;;;;;;14.52;2.28;;;;;;;;;;4860789;28;20254;-78
2021/09/14 12:46:55;;;;;;;16.85;2.70;;;;;;;;;;4864276;28;20538;-74
2021/09/14 12:49:18;;;;;;;11.30;1.85;;;;;;;;;;4861418;28;20251;-78
2021/09/14 12:51:42;;;;;;;11.25;1.70;;;49.00;55.80;;;;;;4868939;28;20192;-74
2021/09/14 12:54:04;;;;;;;15.88;2.45;;;;;;;;;;4867598;28;20213;-76
2021/09/14 12:56:27;;;;;;;18.48;2.75;;;;;;;;;;4862645;28;20194;-75
2021/09/14 12:58:51;;;;;;;7.60;1.25;;;;;;;;;;4859507;28;20196;-75
2021/09/14 13:01:13;;;;;;;10.73;1.70;;;;;;;;;;4868503;28;20607;-75
2021/09/14 13:03:36;;;;;;;15.80;2.45;;;;;;;;;;4858664;28;20190;-74
2021/09/14 13:05:59;;;;;;;8.43;1.35;;;;;;;;;;4868297;28;20720;-75
2021/09/14 13:08:23;;;;;;;14.13;2.25;;;48.30;55.60;;;;;;4861975;28;20260;-75
2021/09/14 13:10:45;;;;;;;19.02;2.92;;;;;;;;;;4867294;28;20251;-74
2021/09/14 13:18:30;;;;;;;24.13;3.40;;;;;;;;;;4861815;28;20182;-77
2021/09/14 13:20:52;;;;;;;28.30;4.10;;;;;;;;;;4858879;28;20259;-74
2021/09/14 13:23:15;;;;;;;8.85;1.42;;;;;;;;;;4872045;28;20193;-73
2021/09/14 13:25:39;;;;;;;13.73;2.10;;;36.90;51.40;;;;;;4862540;28;20193;-78
2021/09/14 13:28:02;;;;;;;6.20;1.00;;;;;;;;;;4865779;28;20189;-78
2021/09/14 13:30:25;;;;;;;17.50;2.60;;;;;;;;;;4864493;28;20616;-75
2021/09/14 13:32:48;;;;;;;8.32;1.33;;;;;;;;;;4868136;28;20248;-75
2021/09/14 13:35:11;;;;;;;9.48;1.50;;;;;;;;;;4878330;28;20225;-75
2021/09/14 13:37:33;;;;;;;11.27;1.77;;;;;;;;;;4869034;28;20228;-73
2021/09/14 13:39:56;;;;;;;7.50;1.23;;;;;;;;;;4876952;28;20219;-74
2021/09/14 13:42:23;;;;;;;10.98;1.80;;;32.60;49.80;;;;;;4863751;28;20243;-75
2021/09/14 13:47:27;;;;;;;16.98;2.63;;;;;;;;;;4874168;28;20234;-74
2021/09/14 13:49:50;;;;;;;6.55;1.10;;;;;;;;;;4866941;28;20246;-75
2021/09/14 13:52:12;;;;;;;6.50;1.13;;;;;;;;;;4865400;28;20230;-78
2021/09/14 13:54:35;;;;;;;13.75;2.17;;;;;;;;;;4868937;28;20733;-73
2021/09/14 13:56:58;;;;;;;6.72;1.17;;;;;;;;;;4868914;28;20196;-73
2021/09/14 13:59:22;;;;;;;9.63;1.60;;;31.00;49.20;;;;;;4870292;28;20186;-73
2021/09/14 14:01:45;;;;;;;7.85;1.35;;;;;;;;;;4867650;28;20212;-71
2021/09/14 14:04:07;;;;;;;6.47;1.13;;;;;;;;;;4862080;28;20231;-76
2021/09/14 14:06:30;;;;;;;12.93;2.10;;;;;;;;;;4865527;28;20197;-73
2021/09/14 14:08:54;;;;;;;9.32;1.63;;;29.60;48.60;;;;;;4878369;28;20177;-73
2021/09/14 14:11:17;;;;;;;6.13;1.10;;;29.10;48.40;;;;;;4863356;28;20198;-72
2021/09/14 14:13:40;;;;;;;4.80;0.90;;;;;;;;;;4857695;28;20190;-74
2021/09/14 14:16:05;;;;;;;7.10;1.25;;;28.70;48.20;;;;;;4866594;28;20194;-73
2021/09/14 14:18:27;;;;;;;11.30;1.93;;;;;;;;;;4871963;28;20194;-72
2021/09/14 14:20:50;;;;;;;17.33;2.87;;;;;;;;;;4867206;28;20208;-72
2021/09/14 14:23:13;;;;;;;7.47;1.35;;;;;;;;;;4867191;28;20608;-74
2021/09/14 14:25:36;;;;;;;13.27;2.30;;;;;;;;;;4871032;28;20594;-73
2021/09/14 14:27:59;;;;;;;4.53;0.80;;;;;;;;;;4865387;28;20192;-73
2021/09/14 14:30:22;;;;;;;8.87;1.50;;;;;;;;;;4867295;28;20204;-73